Time;durP1;ratioP1;P1;durP2;ratioP2;P2;SDS_P1;SDS_P2;PMS_P1;PMS_P2;Temp;Humidity;BMP_temperature;BMP_pressure;BME280_temperature;BME280_humidity;BME280_pressure;Samples;Min_cycle;Max_cycle;Signal;HPM_P1;HPM_P2
2022/04/01 00:01:11;;;;;;;1.17;0.57;;;19.20;49.70;;;;;;5084987;28;20024;-76
2022/04/01 00:03:37;;;;;;;0.80;0.47;;;19.20;49.70;;;;;;5083844;28;20040;-72
2022/04/01 00:06:02;;;;;;;1.73;0.73;;;19.20;49.70;;;;;;5085877;28;20075;-73
2022/04/01 00:08:28;;;;;;;1.13;0.70;;;19.20;49.60;;;;;;5082744;28;20084;-75
2022/04/01 00:10:53;;;;;;;1.33;0.60;;;19.20;49.70;;;;;;5102039;28;20051;-74
2022/04/01 00:13:19;;;;;;;1.48;0.60;;;19.20;49.70;;;;;;5084943;28;20043;-75
2022/04/01 00:15:45;;;;;;;1.30;0.60;;;19.20;49.60;;;;;;5084440;28;20143;-75
2022/04/01 00:18:11;;;;;;;0.80;0.52;;;19.20;49.60;;;;;;5119083;27;20044;-75
2022/04/01 00:20:37;;;;;;;2.53;0.70;;;19.20;49.60;;;;;;5083439;28;20662;-74
2022/04/01 00:23:02;;;;;;;0.65;0.43;;;19.20;49.60;;;;;;5101582;28;20055;-73
2022/04/01 00:25:28;;;;;;;1.02;0.60;;;19.20;49.60;;;;;;5082926;28;20165;-76
2022/04/01 00:27:54;;;;;;;1.70;0.73;;;19.20;49.60;;;;;;5084578;28;20054;-78
2022/04/01 00:30:22;;;;;;;0.80;0.57;;;19.20;49.60;;;;;;5083136;28;20074;-79
2022/04/01 00:32:48;;;;;;;0.52;0.50;;;19.20;49.60;;;;;;5084487;28;20032;-77
2022/04/01 00:35:14;;;;;;;0.60;0.50;;;19.20;49.60;;;;;;5084141;28;20377;-75
2022/04/01 00:37:40;;;;;;;1.20;0.60;;;19.20;49.50;;;;;;5085607;28;20127;-79
2022/04/01 00:40:12;;;;;;;0.60;0.50;;;19.20;49.50;;;;;;5117649;28;20044;-74
2022/04/01 00:42:38;;;;;;;0.70;0.50;;;19.20;49.40;;;;;;5084773;28;20040;-77
2022/04/01 00:45:04;;;;;;;0.88;0.52;;;19.20;49.50;;;;;;5084679;28;20052;-76
2022/04/01 00:47:30;;;;;;;1.17;0.60;;;19.20;49.40;;;;;;5084567;28;20132;-79
2022/04/01 00:49:55;;;;;;;0.88;0.45;;;19.20;49.40;;;;;;5085576;28;20071;-74
2022/04/01 00:52:24;;;;;;;0.50;0.50;;;19.20;49.40;;;;;;5085180;28;20476;-76
2022/04/01 00:54:51;;;;;;;0.75;0.50;;;19.20;49.40;;;;;;5084812;28;20036;-75
2022/04/01 00:57:18;;;;;;;1.35;0.68;;;19.20;49.40;;;;;;5085274;28;20055;-74
2022/04/01 00:59:45;;;;;;;0.85;0.50;;;19.20;49.30;;;;;;5084825;28;20045;-76
2022/04/01 01:02:10;;;;;;;0.98;0.70;;;19.20;49.30;;;;;;5084195;28;20047;-75
2022/04/01 01:04:37;;;;;;;0.70;0.45;;;19.20;49.30;;;;;;5084608;28;20549;-74
2022/04/01 01:07:04;;;;;;;0.82;0.60;;;19.20;49.30;;;;;;5085457;28;20401;-73
2022/04/01 01:09:29;;;;;;;1.88;0.70;;;19.20;49.20;;;;;;5116503;28;20055;-73
2022/04/01 01:11:55;;;;;;;0.60;0.50;;;19.20;49.20;;;;;;5084331;28;20206;-76
2022/04/01 01:14:30;;;;;;;1.05;0.50;;;19.20;49.20;;;;;;5066689;28;20051;-76
2022/04/01 01:16:56;;;;;;;0.80;0.60;;;19.20;49.20;;;;;;5100564;28;20051;-77
2022/04/01 01:19:22;;;;;;;1.27;0.60;;;19.20;49.20;;;;;;5083950;28;20494;-74
2022/04/01 01:21:51;;;;;;;1.10;0.60;;;19.20;49.20;;;;;;5100212;28;20135;-73
2022/04/01 01:24:17;;;;;;;0.63;0.50;;;19.20;49.20;;;;;;5079176;28;20028;-73
2022/04/01 01:26:48;;;;;;;0.85;0.40;;;19.20;49.10;;;;;;5083278;28;20079;-74
2022/04/01 01:29:18;;;;;;;1.23;0.50;;;19.20;49.10;;;;;;5083380;28;20539;-74
2022/04/01 01:31:46;;;;;;;1.13;0.50;;;19.20;49.10;;;;;;5084009;28;20090;-74
2022/04/01 01:34:11;;;;;;;0.60;0.50;;;19.20;49.10;;;;;;5083231;28;20131;-74
2022/04/01 01:36:37;;;;;;;0.65;0.40;;;19.20;49.10;;;;;;5085385;28;20135;-74
2022/04/01 01:39:04;;;;;;;0.93;0.50;;;19.20;49.80;;;;;;5085146;28;20093;-73
2022/04/01 01:41:29;;;;;;;0.40;0.40;;;19.20;49.10;;;;;;5087739;28;20052;-73
2022/04/01 01:43:55;;;;;;;2.08;0.70;;;19.20;49.00;;;;;;5086247;28;20035;-74
2022/04/01 01:46:21;;;;;;;1.05;0.60;;;19.20;49.00;;;;;;5087648;28;20083;-75
2022/04/01 01:48:47;;;;;;;0.85;0.57;;;19.20;49.00;;;;;;5069763;28;20083;-73
2022/04/01 01:56:42;;;;;;;2.15;0.63;;;19.20;48.90;;;;;;5087732;28;20048;-74
2022/04/01 01:59:11;;;;;;;0.63;0.50;;;19.20;48.90;;;;;;5089047;28;20044;-73
2022/04/01 02:01:40;;;;;;;0.63;0.50;;;19.20;48.90;;;;;;5086990;28;20579;-75
2022/04/01 02:04:06;;;;;;;1.30;0.60;;;19.20;48.90;;;;;;5120927;27;20044;-73
2022/04/01 02:06:32;;;;;;;0.60;0.50;;;19.20;48.90;;;;;;5088854;28;20059;-74
2022/04/01 02:08:59;;;;;;;1.35;0.60;;;19.20;48.80;;;;;;5084670;28;20060;-73
2022/04/01 02:11:25;;;;;;;0.65;0.50;;;19.20;48.80;;;;;;5088387;28;20044;-75
2022/04/01 02:13:51;;;;;;;0.70;0.50;;;19.20;48.80;;;;;;5086145;28;20197;-73
2022/04/01 02:16:18;;;;;;;0.80;0.50;;;19.20;48.80;;;;;;5121806;27;20564;-74
2022/04/01 02:18:44;;;;;;;0.80;0.50;;;19.20;48.80;;;;;;5086878;28;20404;-75
2022/04/01 02:21:11;;;;;;;0.80;0.50;;;19.20;48.80;;;;;;5088488;28;20058;-74
2022/04/01 02:23:42;;;;;;;2.05;0.50;;;19.20;48.80;;;;;;5086285;28;20036;-74
2022/04/01 02:26:08;;;;;;;0.85;0.50;;;19.20;48.70;;;;;;5087670;28;20039;-74
2022/04/01 02:28:37;;;;;;;0.40;0.40;;;19.20;48.80;;;;;;5087586;28;20506;-73
2022/04/01 02:31:04;;;;;;;0.40;0.40;;;19.20;48.70;;;;;;5087285;28;20113;-73
2022/04/01 02:33:31;;;;;;;0.90;0.50;;;19.20;48.70;;;;;;5088028;28;20040;-75
2022/04/01 02:35:58;;;;;;;1.55;0.60;;;19.20;48.60;;;;;;5085766;28;20090;-76
2022/04/01 02:38:27;;;;;;;0.50;0.40;;;19.20;48.60;;;;;;5086712;28;20055;-74
2022/04/01 02:40:54;;;;;;;0.35;0.35;;;19.20;48.60;;;;;;5069723;28;20040;-74
2022/04/01 02:43:20;;;;;;;0.75;0.57;;;19.20;48.60;;;;;;5087161;28;20423;-76
2022/04/01 02:45:50;;;;;;;0.80;0.60;;;19.20;49.30;;;;;;5086882;28;20051;-77
2022/04/01 02:48:17;;;;;;;0.80;0.40;;;19.20;48.50;;;;;;5084753;28;20047;-75
2022/04/01 02:50:45;;;;;;;0.57;0.53;;;19.20;48.50;;;;;;5087093;28;20040;-75
2022/04/01 02:53:11;;;;;;;0.80;0.70;;;19.20;48.50;;;;;;5078847;28;20072;-74
2022/04/01 02:55:37;;;;;;;0.50;0.40;;;19.20;48.50;;;;;;5068657;28;20198;-74
2022/04/01 02:58:06;;;;;;;0.60;0.50;;;19.20;48.50;;;;;;5085860;28;20080;-75
2022/04/01 03:00:32;;;;;;;;;;;19.20;48.50;;;;;;5087465;28;20829;-74
2022/04/01 03:02:58;;;;;;;0.40;0.40;;;19.20;48.50;;;;;;5086183;28;19924;-73
2022/04/01 03:05:24;;;;;;;0.60;0.45;;;19.20;48.50;;;;;;5086591;28;20047;-76
2022/04/01 03:07:50;;;;;;;0.73;0.50;;;19.20;48.40;;;;;;5087026;28;20048;-73
2022/04/01 03:10:15;;;;;;;0.77;0.50;;;19.20;48.40;;;;;;5085388;28;20063;-74
2022/04/01 03:12:41;;;;;;;1.02;0.50;;;19.20;48.40;;;;;;5086315;28;20040;-74
2022/04/01 03:15:07;;;;;;;1.10;0.50;;;19.20;48.50;;;;;;5085991;28;20126;-73
2022/04/01 03:17:33;;;;;;;0.60;0.40;;;19.20;48.40;;;;;;5087314;28;20043;-73
2022/04/01 03:20:02;;;;;;;0.73;0.50;;;19.20;48.40;;;;;;5085220;28;20047;-75
2022/04/01 03:22:28;;;;;;;0.88;0.45;;;19.20;48.40;;;;;;5086732;28;20048;-74
2022/04/01 03:24:54;;;;;;;0.90;0.50;;;19.20;48.50;;;;;;5086504;28;20047;-74
2022/04/01 03:27:19;;;;;;;0.30;0.30;;;19.20;48.40;;;;;;5067499;28;20102;-74
2022/04/01 03:29:45;;;;;;;0.43;0.40;;;19.20;48.40;;;;;;5086655;28;20031;-74
2022/04/01 03:32:11;;;;;;;0.77;0.50;;;19.20;48.40;;;;;;5084396;28;20043;-73
2022/04/01 03:34:38;;;;;;;0.85;0.40;;;19.20;48.40;;;;;;5085435;28;20066;-73
2022/04/01 03:37:05;;;;;;;0.70;0.50;;;19.20;48.40;;;;;;5084879;28;20517;-78
2022/04/01 03:39:32;;;;;;;0.50;0.40;;;19.20;48.40;;;;;;5118662;27;20047;-76
2022/04/01 03:41:58;;;;;;;0.90;0.50;;;19.20;48.30;;;;;;5086531;28;20056;-76
2022/04/01 03:44:25;;;;;;;0.90;0.60;;;19.20;48.30;;;;;;5084333;28;20040;-78
2022/04/01 03:47:02;;;;;;;0.70;0.50;;;19.20;48.40;;;;;;5115713;27;20048;-78
2022/04/01 03:49:32;;;;;;;0.47;0.40;;;19.20;48.30;;;;;;5100211;28;20044;-79
2022/04/01 03:51:59;;;;;;;1.05;0.40;;;19.20;48.30;;;;;;5086453;28;20063;-79
2022/04/01 03:54:27;;;;;;;0.30;0.30;;;19.20;48.30;;;;;;5068399;28;20042;-76
2022/04/01 03:57:01;;;;;;;1.07;0.40;;;19.20;48.30;;;;;;5082923;28;20122;-75
2022/04/01 03:59:40;;;;;;;0.52;0.50;;;19.20;48.20;;;;;;5118976;27;20048;-78
2022/04/01 04:02:09;;;;;;;0.30;0.30;;;19.20;48.30;;;;;;5097992;28;20060;-77
2022/04/01 04:04:39;;;;;;;0.50;0.50;;;19.20;48.20;;;;;;5084971;28;20160;-77
2022/04/01 04:07:09;;;;;;;0.45;0.40;;;19.20;48.30;;;;;;5083891;28;20048;-75
2022/04/01 04:09:39;;;;;;;0.55;0.50;;;19.20;48.20;;;;;;5101253;28;20059;-77
2022/04/01 04:12:07;;;;;;;0.90;0.40;;;19.20;48.30;;;;;;5118805;27;20210;-77
2022/04/01 04:14:33;;;;;;;0.65;0.50;;;19.20;48.20;;;;;;5083662;28;20044;-76
2022/04/01 04:17:08;;;;;;;1.83;0.50;;;19.20;48.20;;;;;;5085146;28;20067;-74
2022/04/01 04:19:48;;;;;;;0.40;0.30;;;19.20;48.20;;;;;;5083228;28;20048;-74
2022/04/01 04:22:14;;;;;;;1.92;0.50;;;19.20;48.20;;;;;;5084840;28;20047;-73
2022/04/01 04:24:54;;;;;;;0.70;0.40;;;19.20;48.20;;;;;;5068015;28;20118;-74
2022/04/01 04:27:26;;;;;;;1.30;0.40;;;19.20;48.20;;;;;;5084941;28;20032;-77
2022/04/01 04:29:55;;;;;;;0.55;0.55;;;19.20;48.20;;;;;;5085044;28;20531;-74
2022/04/01 04:32:33;;;;;;;0.40;0.40;;;19.20;48.30;;;;;;5083443;28;20055;-75
2022/04/01 04:35:05;;;;;;;0.70;0.50;;;19.20;48.20;;;;;;5067996;28;20193;-74
2022/04/01 04:37:37;;;;;;;1.17;0.40;;;19.20;48.30;;;;;;5083894;28;20044;-73
2022/04/01 04:40:04;;;;;;;1.55;0.45;;;19.20;48.20;;;;;;5084541;28;20372;-74
2022/04/01 04:42:31;;;;;;;0.60;0.40;;;19.20;48.20;;;;;;5084816;28;20097;-75
2022/04/01 04:44:58;;;;;;;0.67;0.50;;;19.20;48.20;;;;;;5066994;28;20097;-75
2022/04/01 04:47:29;;;;;;;0.50;0.40;;;19.20;48.20;;;;;;5084339;28;20112;-75
2022/04/01 04:49:57;;;;;;;1.00;0.50;;;19.20;48.20;;;;;;5117158;28;20144;-73
2022/04/01 04:52:29;;;;;;;0.80;0.43;;;19.20;48.20;;;;;;5118434;28;20048;-73
2022/04/01 04:54:56;;;;;;;1.40;0.45;;;19.20;48.20;;;;;;5083540;28;20127;-74
2022/04/01 04:57:22;;;;;;;0.63;0.50;;;19.20;48.10;;;;;;5082292;28;20564;-73
2022/04/01 04:59:49;;;;;;;0.50;0.47;;;19.20;48.10;;;;;;5115038;28;20089;-74
2022/04/01 05:02:22;;;;;;;1.02;0.55;;;19.20;48.10;;;;;;5117277;28;20115;-76
2022/04/01 05:05:04;;;;;;;0.30;0.30;;;19.20;48.10;;;;;;5084669;28;20507;-73
2022/04/01 05:07:48;;;;;;;1.42;0.50;;;19.20;48.10;;;;;;5100422;28;20163;-74
2022/04/01 05:10:16;;;;;;;0.60;0.35;;;19.20;48.10;;;;;;5083262;28;20055;-75
2022/04/01 05:13:02;;;;;;;;;;;19.20;48.10;;;;;;5086321;28;20066;-74
2022/04/01 05:15:34;;;;;;;1.40;0.32;;;19.20;48.10;;;;;;5070399;28;20291;-76
2022/04/01 05:18:24;;;;;;;0.50;0.43;;;19.20;48.10;;;;;;5068349;28;20040;-73
2022/04/01 05:20:55;;;;;;;1.38;0.50;;;19.20;48.10;;;;;;5075598;28;20544;-72
2022/04/01 05:23:36;;;;;;;0.40;0.40;;;19.20;48.10;;;;;;5071279;28;20052;-75
2022/04/01 05:26:12;;;;;;;1.00;0.40;;;19.20;48.10;;;;;;5086997;28;20069;-74
2022/04/01 05:28:55;;;;;;;0.85;0.40;;;19.20;48.10;;;;;;5120080;27;20415;-73
2022/04/01 05:31:46;;;;;;;0.45;0.40;;;19.20;48.10;;;;;;5088118;28;20060;-73
2022/04/01 05:34:31;;;;;;;1.20;0.40;;;19.20;48.10;;;;;;5071272;28;20391;-76
2022/04/01 05:36:57;;;;;;;0.68;0.40;;;19.20;48.10;;;;;;5086239;28;20083;-75
2022/04/01 05:39:28;;;;;;;0.70;0.50;;;19.20;48.10;;;;;;5104649;28;20461;-74
2022/04/01 05:41:54;;;;;;;0.43;0.30;;;19.20;48.10;;;;;;5085336;28;20580;-73
2022/04/01 05:44:21;;;;;;;0.93;0.52;;;19.20;48.10;;;;;;5121822;27;20054;-74
2022/04/01 05:46:48;;;;;;;0.60;0.50;;;19.20;48.10;;;;;;5085651;28;20120;-74
2022/04/01 05:49:14;;;;;;;0.82;0.40;;;19.20;48.10;;;;;;5066475;28;20083;-74
2022/04/01 05:51:41;;;;;;;0.50;0.40;;;19.20;48.10;;;;;;5095871;28;20603;-79
2022/04/01 05:54:19;;;;;;;0.95;0.40;;;19.20;48.00;;;;;;5087109;28;20047;-75
2022/04/01 05:56:51;;;;;;;1.38;0.50;;;19.20;48.10;;;;;;5063600;28;20064;-76
2022/04/01 05:59:38;;;;;;;1.38;0.50;;;19.20;48.00;;;;;;5073577;28;20508;-75
2022/04/01 06:02:41;;;;;;;0.82;0.60;;;19.20;48.00;;;;;;5083794;28;20047;-81
2022/04/01 06:05:27;;;;;;;4.82;0.82;;;19.20;48.00;;;;;;5054190;28;20047;-78
2022/04/01 06:08:12;;;;;;;5.45;0.73;;;19.20;47.80;;;;;;5100746;28;20040;-80
2022/04/01 06:11:12;;;;;;;2.17;0.70;;;19.20;47.70;;;;;;5084932;28;20518;-77
2022/04/01 06:13:50;;;;;;;0.60;0.50;;;19.20;47.60;;;;;;5088653;28;20101;-82
2022/04/01 06:16:28;;;;;;;;;;;19.10;47.50;;;;;;5087606;28;20055;-79
2022/04/01 06:19:22;;;;;;;0.90;0.52;;;19.10;47.40;;;;;;5086462;28;20591;-76
2022/04/01 06:22:12;;;;;;;1.30;0.60;;;19.10;47.30;;;;;;5086521;28;20075;-77
2022/04/01 06:25:02;;;;;;;5.57;0.98;;;19.10;47.30;;;;;;5076674;28;20084;-76
2022/04/01 06:27:38;;;;;;;1.15;0.60;;;19.10;47.40;;;;;;5085673;28;20052;-77
2022/04/01 06:30:08;;;;;;;2.15;0.65;;;19.10;47.30;;;;;;5083327;28;20107;-76
2022/04/01 06:32:52;;;;;;;5.40;0.70;;;19.20;47.50;;;;;;5086606;28;20147;-75
2022/04/01 06:35:23;;;;;;;2.17;0.68;;;19.20;47.50;;;;;;5076288;28;20055;-79
2022/04/01 06:37:51;;;;;;;5.30;0.55;;;19.20;47.40;;;;;;5077674;28;20040;-76
2022/04/01 06:40:20;;;;;;;;;;;19.20;47.30;;;;;;5085769;28;20028;-77
2022/04/01 06:42:53;;;;;;;3.58;0.88;;;19.30;47.40;;;;;;5085480;28;20030;-77
2022/04/01 06:45:19;;;;;;;2.53;0.63;;;19.30;47.20;;;;;;5092859;28;20708;-75
2022/04/01 06:47:45;;;;;;;4.32;0.73;;;19.20;47.20;;;;;;5084790;28;20036;-73
2022/04/01 06:50:12;;;;;;;3.22;0.75;;;19.30;47.30;;;;;;5080005;28;20093;-73
2022/04/01 06:52:39;;;;;;;5.78;0.90;;;19.30;47.40;;;;;;5084521;28;20043;-74
2022/04/01 06:55:08;;;;;;;3.63;0.55;;;19.30;47.50;;;;;;5082492;28;20036;-73
2022/04/01 06:57:34;;;;;;;;;;;19.30;47.80;;;;;;5083953;28;20051;-74
2022/04/01 06:59:59;;;;;;;2.03;0.60;;;19.40;47.90;;;;;;5083591;28;19920;-72
2022/04/01 07:02:25;;;;;;;3.13;0.80;;;19.40;47.80;;;;;;5083389;28;20040;-73
2022/04/01 07:04:50;;;;;;;3.80;0.50;;;19.40;47.80;;;;;;5097958;27;20055;-71
2022/04/01 07:07:16;;;;;;;1.73;0.60;;;19.40;47.90;;;;;;5080250;28;20051;-70
2022/04/01 07:09:41;;;;;;;3.72;0.90;;;19.50;47.90;;;;;;5071391;28;20054;-73
2022/04/01 07:12:07;;;;;;;3.72;0.70;;;19.50;48.00;;;;;;5082097;28;20129;-74
2022/04/01 07:14:33;;;;;;;2.75;0.50;;;19.50;48.00;;;;;;5082015;28;20066;-73
2022/04/01 07:16:59;;;;;;;4.47;0.50;;;19.50;48.00;;;;;;5061905;28;20048;-74
2022/04/01 07:19:25;;;;;;;2.90;0.70;;;19.60;48.10;;;;;;5083896;28;20054;-74
2022/04/01 07:21:50;;;;;;;5.65;0.75;;;19.60;48.10;;;;;;5082316;28;20036;-74
2022/04/01 07:24:16;;;;;;;2.13;0.68;;;19.60;48.10;;;;;;5082764;28;20036;-74
2022/04/01 07:26:44;;;;;;;5.97;0.70;;;19.60;48.10;;;;;;5077582;28;20157;-73
2022/04/01 07:29:10;;;;;;;3.28;0.75;;;19.60;48.10;;;;;;5083527;28;20098;-74
2022/04/01 07:34:37;;;;;;;6.30;0.70;;;19.70;48.20;;;;;;5080140;28;20186;-74
2022/04/01 07:37:03;;;;;;;4.13;0.77;;;19.70;48.30;;;;;;5084006;28;20886;-74
2022/04/01 07:39:29;;;;;;;3.47;0.77;;;19.70;48.20;;;;;;5083199;28;20040;-73
2022/04/01 07:41:55;;;;;;;2.50;0.65;;;19.70;48.20;;;;;;5084020;28;20522;-72
2022/04/01 07:44:22;;;;;;;5.15;0.77;;;19.70;48.20;;;;;;5116842;27;20508;-74
2022/04/01 07:46:48;;;;;;;2.13;0.75;;;19.80;48.20;;;;;;5085703;28;20412;-76
2022/04/01 07:49:15;;;;;;;3.58;0.70;;;19.70;48.10;;;;;;5084161;28;20127;-79
2022/04/01 07:51:41;;;;;;;1.85;0.90;;;19.70;47.90;;;;;;5084319;28;20044;-72
2022/04/01 07:54:06;;;;;;;2.35;0.70;;;19.70;47.80;;;;;;5086004;28;20047;-73
2022/04/01 07:56:32;;;;;;;2.97;0.70;;;19.80;47.70;;;;;;5084135;28;20054;-73
2022/04/01 07:58:58;;;;;;;5.82;0.70;;;19.80;47.80;;;;;;5066673;28;20044;-72
2022/04/01 08:01:24;;;;;;;3.95;0.68;;;19.80;47.70;;;;;;5087135;28;20040;-77
2022/04/01 08:03:50;;;;;;;1.70;0.60;;;19.80;47.70;;;;;;5083031;28;20105;-76
2022/04/01 08:06:16;;;;;;;5.03;0.80;;;19.80;47.80;;;;;;5086815;28;20641;-74
2022/04/01 08:08:42;;;;;;;5.00;1.00;;;19.80;47.80;;;;;;5084142;28;20506;-73
2022/04/01 08:11:07;;;;;;;2.65;0.80;;;19.80;47.80;;;;;;5085472;28;20091;-76
2022/04/01 08:13:33;;;;;;;1.45;0.70;;;19.80;47.80;;;;;;5084100;28;20446;-74
2022/04/01 08:16:00;;;;;;;4.65;0.80;;;19.80;47.80;;;;;;5093314;28;20047;-73
2022/04/01 08:18:26;;;;;;;1.45;0.80;;;19.80;47.90;;;;;;5100131;28;20036;-72
2022/04/01 08:20:52;;;;;;;2.40;0.60;;;19.90;48.00;;;;;;5074955;28;20047;-73
2022/04/01 08:23:19;;;;;;;4.13;0.73;;;19.90;48.00;;;;;;5085809;28;20204;-72
2022/04/01 08:25:45;;;;;;;1.13;0.70;;;19.90;47.90;;;;;;5088915;28;20595;-73
2022/04/01 08:28:12;;;;;;;2.92;0.70;;;19.90;48.00;;;;;;5084634;28;20044;-73
2022/04/01 08:30:39;;;;;;;2.63;0.73;;;19.90;47.90;;;;;;5099844;28;20395;-72
2022/04/01 08:33:05;;;;;;;2.45;0.73;;;19.90;47.90;;;;;;5085210;28;20122;-72
2022/04/01 08:35:31;;;;;;;3.83;0.70;;;19.90;47.90;;;;;;5083454;28;20089;-71
2022/04/01 08:37:58;;;;;;;7.40;0.90;;;19.90;47.80;;;;;;5085119;28;20043;-72
2022/04/01 08:40:24;;;;;;;1.92;0.75;;;19.90;47.80;;;;;;5082986;28;20094;-74
2022/04/01 08:42:50;;;;;;;2.03;0.80;;;19.90;47.80;;;;;;5116414;28;20048;-73
2022/04/01 08:45:17;;;;;;;3.83;1.10;;;20.00;47.70;;;;;;5085652;28;20051;-74
2022/04/01 08:47:43;;;;;;;1.73;1.48;;;19.90;47.70;;;;;;5084979;28;20044;-73
2022/04/01 08:50:09;;;;;;;0.75;0.60;;;20.00;47.70;;;;;;5088450;28;20067;-72
2022/04/01 08:52:35;;;;;;;1.63;0.77;;;20.00;47.70;;;;;;5116127;27;20419;-74
2022/04/01 08:55:06;;;;;;;2.38;0.65;;;20.00;47.70;;;;;;5088862;28;20044;-75
2022/04/01 08:57:39;;;;;;;1.05;0.75;;;20.00;47.70;;;;;;5083162;28;20036;-76
2022/04/01 09:00:25;;;;;;;7.93;0.90;;;20.00;47.60;;;;;;5116762;27;20123;-73
2022/04/01 09:02:59;;;;;;;4.68;0.93;;;20.00;47.60;;;;;;5074524;28;20040;-72
2022/04/01 09:05:25;;;;;;;2.67;0.80;;;20.10;47.70;;;;;;5090888;28;20055;-73
2022/04/01 09:08:08;;;;;;;1.65;0.70;;;20.10;47.70;;;;;;5096051;28;20051;-72
2022/04/01 09:11:18;;;;;;;2.50;0.75;;;20.10;47.60;;;;;;5087804;28;20048;-72
2022/04/01 09:13:43;;;;;;;1.55;0.80;;;20.20;47.70;;;;;;5024933;28;20049;-73
2022/04/01 09:16:27;;;;;;;;;;;20.20;47.70;;;;;;5084905;28;20048;-71
2022/04/01 09:18:55;;;;;;;3.00;0.70;;;20.20;47.70;;;;;;5086860;28;20059;-72
2022/04/01 09:21:32;;;;;;;0.90;0.68;;;20.20;47.70;;;;;;5086747;28;20624;-72
2022/04/01 09:23:58;;;;;;;1.50;0.80;;;20.20;47.70;;;;;;5087469;28;20040;-72
2022/04/01 09:26:32;;;;;;;3.83;0.90;;;20.20;47.70;;;;;;5073211;28;20039;-73
2022/04/01 09:28:59;;;;;;;1.50;0.90;;;20.20;47.70;;;;;;5110964;27;20040;-72
2022/04/01 09:31:29;;;;;;;2.10;1.13;;;20.20;47.60;;;;;;5104009;28;20504;-72
2022/04/01 09:33:55;;;;;;;1.15;0.80;;;20.30;47.60;;;;;;5087965;28;20141;-71
2022/04/01 09:36:38;;;;;;;2.13;1.00;;;20.30;47.60;;;;;;5117368;27;20047;-71
2022/04/01 09:39:10;;;;;;;1.77;1.00;;;20.30;47.50;;;;;;5095408;28;20051;-70
2022/04/01 09:41:45;;;;;;;2.00;0.90;;;20.30;47.50;;;;;;5099308;28;20134;-74
2022/04/01 09:44:23;;;;;;;1.55;1.05;;;20.40;47.50;;;;;;5087773;28;20040;-72
2022/04/01 09:46:50;;;;;;;1.85;1.08;;;20.40;47.50;;;;;;5086765;28;20090;-75
2022/04/01 09:49:34;;;;;;;2.33;1.15;;;20.40;47.50;;;;;;5103230;27;20048;-74
2022/04/01 09:51:59;;;;;;;6.45;1.02;;;20.40;47.50;;;;;;5107954;27;20059;-72
2022/04/01 09:54:25;;;;;;;0.82;0.70;;;20.40;47.50;;;;;;5088366;28;20077;-73
2022/04/01 09:56:54;;;;;;;2.70;0.80;;;20.40;47.50;;;;;;5084936;28;20040;-71
2022/04/01 09:59:22;;;;;;;1.25;0.80;;;20.40;47.50;;;;;;5087537;28;20519;-76
2022/04/01 10:01:48;;;;;;;1.70;0.90;;;20.40;47.40;;;;;;5085881;28;20033;-72
2022/04/01 10:04:14;;;;;;;2.90;1.17;;;20.40;47.40;;;;;;5070395;28;20124;-72
2022/04/01 10:06:41;;;;;;;3.33;0.93;;;20.40;48.10;;;;;;5085073;28;20127;-76
2022/04/01 10:09:11;;;;;;;1.60;1.02;;;20.50;47.40;;;;;;5087104;28;20040;-76
2022/04/01 10:11:41;;;;;;;1.52;1.00;;;20.50;47.00;;;;;;5086511;28;20052;-73
2022/04/01 10:14:11;;;;;;;3.35;1.20;;;20.40;46.50;;;;;;5091313;28;20878;-73
2022/04/01 10:16:42;;;;;;;2.28;1.10;;;20.50;46.20;;;;;;5086809;28;20037;-73
2022/04/01 10:19:27;;;;;;;7.07;1.40;;;20.40;45.60;;;;;;5084097;28;20036;-74
2022/04/01 10:21:52;;;;;;;3.20;1.17;;;20.40;45.20;;;;;;5083691;28;20450;-75
2022/04/01 10:24:49;;;;;;;1.85;1.10;;;20.40;45.40;;;;;;5086829;28;20052;-75
2022/04/01 10:27:36;;;;;;;3.10;1.13;;;20.40;45.00;;;;;;5084625;28;20047;-72
2022/04/01 10:30:03;;;;;;;1.75;1.10;;;20.30;44.80;;;;;;5113874;27;20060;-73
2022/04/01 10:32:40;;;;;;;3.65;1.33;;;20.30;45.00;;;;;;5085207;28;20040;-72
2022/04/01 10:35:08;;;;;;;2.42;1.27;;;20.30;44.80;;;;;;5086090;28;20044;-73
2022/04/01 10:37:35;;;;;;;3.28;1.20;;;20.20;44.90;;;;;;5085815;28;20079;-73
2022/04/01 10:40:18;;;;;;;2.67;1.10;;;20.20;44.80;;;;;;5084581;28;20439;-73
2022/04/01 10:42:45;;;;;;;2.60;1.30;;;20.20;44.80;;;;;;5086007;28;20056;-72
2022/04/01 10:45:17;;;;;;;3.87;1.30;;;20.20;45.00;;;;;;5085125;28;20040;-72
2022/04/01 10:53:48;;;;;;;4.65;1.33;;;20.20;45.10;;;;;;5081967;28;20047;-73
2022/04/01 10:56:23;;;;;;;3.63;1.30;;;20.20;45.10;;;;;;5086453;28;20044;-73
2022/04/01 10:59:07;;;;;;;4.97;1.20;;;20.20;45.10;;;;;;5087179;28;20040;-73
2022/04/01 11:01:38;;;;;;;3.45;1.20;;;20.20;45.10;;;;;;5084923;28;20127;-73
2022/04/01 11:04:10;;;;;;;1.95;1.08;;;20.20;45.20;;;;;;5119513;27;20075;-73
2022/04/01 11:06:52;;;;;;;1.90;1.00;;;20.20;45.20;;;;;;5070485;28;20052;-73
2022/04/01 11:09:47;;;;;;;1.52;1.00;;;20.30;45.20;;;;;;5084237;28;20063;-72
2022/04/01 11:12:16;;;;;;;3.00;1.25;;;20.20;45.20;;;;;;5084491;28;20075;-73
2022/04/01 11:14:55;;;;;;;2.13;1.10;;;20.20;45.20;;;;;;5085571;28;20048;-75
2022/04/01 11:17:40;;;;;;;1.88;1.20;;;20.30;45.20;;;;;;5085778;28;20820;-72
2022/04/01 11:20:15;;;;;;;1.70;1.00;;;20.30;45.10;;;;;;5117633;27;20091;-73
2022/04/01 11:22:46;;;;;;;1.58;0.90;;;20.30;45.20;;;;;;5084556;28;20510;-73
2022/04/01 11:25:32;;;;;;;2.13;1.13;;;20.30;45.20;;;;;;5085416;28;20043;-73
2022/04/01 11:28:03;;;;;;;1.98;1.20;;;20.30;45.10;;;;;;5083532;28;20577;-72
2022/04/01 11:30:33;;;;;;;1.65;0.90;;;20.30;45.10;;;;;;5085118;28;20048;-72
2022/04/01 11:33:06;;;;;;;2.22;1.10;;;20.30;45.10;;;;;;5084750;28;20043;-73
2022/04/01 11:35:35;;;;;;;2.17;1.20;;;20.30;45.10;;;;;;5078189;28;20377;-74
2022/04/01 11:38:01;;;;;;;1.63;1.10;;;20.30;45.10;;;;;;5084881;28;20205;-73
2022/04/01 11:40:30;;;;;;;1.70;1.20;;;20.30;45.10;;;;;;5082763;28;20496;-74
2022/04/01 11:43:02;;;;;;;2.63;1.17;;;20.40;45.10;;;;;;5085142;28;20039;-74
2022/04/01 11:45:30;;;;;;;1.88;0.90;;;20.40;45.10;;;;;;5083967;28;20043;-73
2022/04/01 11:47:56;;;;;;;3.00;0.98;;;20.40;45.10;;;;;;5085238;28;20056;-74
2022/04/01 11:50:23;;;;;;;1.67;1.00;;;20.40;45.00;;;;;;5083636;28;20063;-75
2022/04/01 11:52:52;;;;;;;6.35;1.02;;;20.40;45.00;;;;;;5114629;27;20295;-72
2022/04/01 11:55:26;;;;;;;3.70;1.15;;;20.40;44.90;;;;;;5083533;28;20428;-72
2022/04/01 11:57:56;;;;;;;1.92;1.00;;;20.50;45.00;;;;;;5083090;28;20052;-73
2022/04/01 12:00:24;;;;;;;1.40;1.10;;;20.40;45.10;;;;;;5083802;28;20150;-72
2022/04/01 12:02:51;;;;;;;1.95;0.90;;;20.40;44.80;;;;;;5083483;28;20127;-72
2022/04/01 12:05:17;;;;;;;1.65;1.08;;;20.40;45.60;;;;;;5082959;28;20056;-72
2022/04/01 12:10:37;;;;;;;1.55;1.10;;;20.40;44.40;;;;;;5104150;27;20154;-73
2022/04/01 12:13:05;;;;;;;5.50;1.10;;;20.50;44.40;;;;;;5067132;28;20044;-72
2022/04/01 12:15:41;;;;;;;;;;;20.50;44.20;;;;;;5104991;27;20075;-72
2022/04/01 12:18:10;;;;;;;5.32;1.05;;;20.40;43.80;;;;;;5113674;27;19920;-73
2022/04/01 12:20:40;;;;;;;3.58;1.10;;;20.40;43.90;;;;;;5091804;28;20097;-73
2022/04/01 12:23:07;;;;;;;3.58;1.27;;;20.40;43.70;;;;;;5083845;28;20036;-72
2022/04/01 12:25:34;;;;;;;2.28;1.20;;;20.50;43.70;;;;;;5072891;28;20044;-72
2022/04/01 12:28:04;;;;;;;3.20;1.10;;;20.40;43.60;;;;;;5082179;28;20507;-72
2022/04/01 12:30:49;;;;;;;1.58;1.10;;;20.40;43.60;;;;;;5067038;28;20066;-74
2022/04/01 12:33:20;;;;;;;1.50;1.00;;;20.40;43.40;;;;;;5083777;28;20063;-72
2022/04/01 12:35:52;;;;;;;5.82;1.30;;;20.40;43.50;;;;;;5083270;28;20051;-71
2022/04/01 12:38:18;;;;;;;2.10;1.10;;;20.50;43.40;;;;;;5083323;28;20044;-74
2022/04/01 12:40:50;;;;;;;10.30;1.20;;;20.50;43.30;;;;;;5078964;28;20066;-73
2022/04/01 12:43:43;;;;;;;6.05;1.20;;;20.50;43.10;;;;;;5075182;28;20635;-74
2022/04/01 12:46:29;;;;;;;3.85;1.30;;;20.50;43.00;;;;;;5082114;28;20511;-75
2022/04/01 12:49:16;;;;;;;1.98;1.20;;;20.40;43.10;;;;;;5094378;28;20040;-73
2022/04/01 12:52:15;;;;;;;4.40;1.13;;;20.40;43.20;;;;;;5083512;28;20056;-72
2022/04/01 12:54:49;;;;;;;4.57;1.08;;;20.40;43.20;;;;;;5074972;28;20052;-74
2022/04/01 12:57:16;;;;;;;1.98;1.20;;;20.40;43.20;;;;;;5081019;28;20527;-74
2022/04/01 12:59:46;;;;;;;1.73;1.00;;;20.40;43.20;;;;;;5077891;28;20058;-73
2022/04/01 13:02:14;;;;;;;4.53;1.67;;;20.40;43.20;;;;;;5083414;28;20036;-74
2022/04/01 13:04:51;;;;;;;2.83;1.42;;;20.40;43.20;;;;;;5099378;28;20124;-72
2022/04/01 13:07:32;;;;;;;4.10;1.25;;;20.40;43.20;;;;;;5077655;28;20059;-72
2022/04/01 13:10:13;;;;;;;2.05;1.23;;;20.40;43.10;;;;;;5085383;28;20048;-71
2022/04/01 13:12:40;;;;;;;2.17;1.35;;;20.40;43.00;;;;;;5108317;28;20036;-72
2022/04/01 13:15:09;;;;;;;1.30;1.10;;;20.40;43.00;;;;;;5084389;28;21690;-71
2022/04/01 13:17:55;;;;;;;3.72;1.35;;;20.40;43.00;;;;;;5083536;28;20290;-72
2022/04/01 13:20:23;;;;;;;2.83;1.27;;;20.40;42.90;;;;;;5087633;28;20135;-73
2022/04/01 13:22:49;;;;;;;4.75;1.35;;;20.40;42.80;;;;;;5085092;28;20475;-73